createdAt,value
2023-04-15T00:02:21.069Z,68.80
2023-04-15T00:04:54.197Z,69.30
2023-04-15T00:07:29.661Z,69.76
2023-04-15T00:10:04.500Z,69.25
2023-04-15T00:12:37.173Z,69.68
2023-04-15T00:15:10.265Z,69.65
2023-04-15T00:17:43.077Z,69.47
2023-04-15T00:20:15.777Z,69.56
2023-04-15T00:22:49.771Z,69.96
2023-04-15T00:25:22.493Z,69.95
2023-04-15T00:27:55.545Z,69.88
2023-04-15T00:30:28.330Z,69.91
2023-04-15T00:33:03.770Z,69.72
2023-04-15T00:35:36.932Z,69.64
2023-04-15T00:38:11.532Z,69.54
2023-04-15T00:40:44.394Z,69.74
2023-04-15T00:43:17.648Z,69.39
2023-04-15T00:45:51.150Z,70.08
2023-04-15T00:48:24.158Z,69.57
2023-04-15T00:50:56.894Z,70.03
2023-04-15T00:53:31.029Z,70.11
2023-04-15T00:56:03.755Z,70.32
2023-04-15T00:58:37.126Z,70.66
2023-04-15T01:01:10.290Z,70.40
2023-04-15T01:03:43.118Z,70.48
2023-04-15T01:06:16.017Z,70.64
2023-04-15T01:08:50.651Z,70.65
2023-04-15T01:11:25.167Z,70.82
2023-04-15T01:14:00.050Z,70.59
2023-04-15T01:16:32.917Z,70.29
2023-04-15T01:19:05.576Z,70.46
2023-04-15T01:21:38.511Z,70.47
2023-04-15T01:24:13.235Z,70.45
2023-04-15T01:26:47.600Z,70.65
2023-04-15T01:29:20.207Z,70.69
2023-04-15T01:31:53.720Z,70.24
2023-04-15T01:34:26.511Z,70.66
2023-04-15T01:36:59.125Z,70.90
2023-04-15T01:39:31.835Z,70.61
2023-04-15T01:42:06.140Z,70.81
2023-04-15T01:44:38.837Z,70.94
2023-04-15T01:47:12.448Z,70.83
2023-04-15T01:49:45.145Z,70.68
2023-04-15T01:52:18.516Z,70.79
2023-04-15T01:54:51.334Z,70.73
2023-04-15T01:57:25.399Z,71.03
2023-04-15T01:59:58.186Z,71.38
2023-04-15T02:02:30.951Z,71.72
2023-04-15T02:05:04.766Z,71.80
2023-04-15T02:07:37.988Z,72.09
2023-04-15T02:10:11.763Z,72.36
2023-04-15T02:12:45.844Z,72.11
2023-04-15T02:15:18.523Z,72.80
2023-04-15T02:17:52.795Z,73.04
2023-04-15T02:20:25.692Z,73.11
2023-04-15T02:22:58.644Z,73.51
2023-04-15T02:25:31.357Z,73.22
2023-04-15T02:28:06.312Z,73.72
2023-04-15T02:30:40.891Z,74.00
2023-04-15T02:33:13.626Z,74.23
2023-04-15T02:35:46.604Z,74.43
2023-04-15T02:38:19.241Z,74.39
2023-04-15T02:40:51.940Z,74.63
2023-04-15T02:43:26.280Z,74.67
2023-04-15T02:45:59.034Z,74.86
2023-04-15T02:48:31.858Z,74.83
2023-04-15T02:51:14.756Z,74.57
2023-04-15T02:53:47.565Z,74.32
2023-04-15T02:56:20.351Z,74.33
2023-04-15T02:58:56.306Z,74.03
2023-04-15T03:01:28.956Z,74.35
2023-04-15T03:04:17.009Z,74.18
2023-04-15T03:06:49.786Z,73.89
2023-04-15T03:09:22.478Z,74.05
2023-04-15T03:11:55.191Z,73.78
2023-04-15T03:14:29.268Z,73.81
2023-04-15T03:17:01.865Z,74.04
2023-04-15T03:19:34.555Z,73.93
2023-04-15T03:22:07.270Z,74.32
2023-04-15T03:24:39.984Z,74.09
2023-04-15T03:27:13.254Z,74.44
2023-04-15T03:29:47.492Z,74.29
2023-04-15T03:32:20.263Z,73.84
2023-04-15T03:34:53.051Z,73.85
2023-04-15T03:37:25.698Z,73.86
2023-04-15T03:39:58.386Z,73.86
2023-04-15T03:42:31.108Z,73.84
2023-04-15T03:45:05.648Z,73.52
2023-04-15T03:47:38.327Z,73.96
2023-04-15T03:50:11.705Z,73.94
2023-04-15T03:52:45.565Z,73.73
2023-04-15T03:55:18.399Z,73.75
2023-04-15T03:57:51.020Z,73.97
2023-04-15T04:00:25.494Z,73.56
2023-04-15T04:02:58.686Z,73.34
2023-04-15T04:05:31.574Z,73.63
2023-04-15T04:08:04.250Z,73.45
2023-04-15T04:10:36.986Z,73.57
2023-04-15T04:13:09.795Z,73.18
2023-04-15T04:15:43.902Z,73.40
2023-04-15T04:18:16.896Z,73.56
2023-04-15T04:20:49.672Z,73.59
2023-04-15T04:23:22.380Z,73.61
2023-04-15T04:25:55.019Z,73.30
2023-04-15T04:28:28.007Z,72.96
2023-04-15T04:31:02.407Z,73.21
2023-04-15T04:33:35.050Z,72.86
2023-04-15T04:36:07.957Z,72.64
2023-04-15T04:38:40.675Z,72.69
2023-04-15T04:41:13.414Z,72.85
2023-04-15T04:43:46.368Z,72.96
2023-04-15T04:46:20.729Z,72.85
2023-04-15T04:48:53.522Z,72.95
2023-04-15T04:51:26.771Z,73.03
2023-04-15T04:54:00.856Z,73.17
2023-04-15T04:56:35.857Z,73.32
2023-04-15T04:59:08.496Z,73.43
2023-04-15T05:01:42.880Z,73.39
2023-04-15T05:04:16.137Z,73.45
2023-04-15T05:06:48.980Z,73.50
2023-04-15T05:09:21.697Z,73.73
2023-04-15T05:11:54.490Z,73.38
2023-04-15T05:14:27.281Z,73.66
2023-04-15T05:17:01.418Z,74.06
2023-04-15T05:19:34.152Z,73.79
2023-04-15T05:22:07.155Z,73.92
2023-04-15T05:24:39.855Z,73.94
2023-04-15T05:27:12.726Z,73.94
2023-04-15T05:29:45.903Z,73.75
2023-04-15T05:32:20.125Z,74.05
2023-04-15T05:34:52.820Z,74.00
2023-04-15T05:37:25.574Z,74.01
2023-04-15T05:39:58.237Z,74.03
2023-04-15T05:42:30.943Z,74.10
2023-04-15T05:45:05.582Z,74.31
2023-04-15T05:47:39.657Z,74.18
2023-04-15T05:50:12.565Z,74.52
2023-04-15T05:52:45.964Z,74.34
2023-04-15T05:55:18.624Z,74.13
2023-04-15T05:57:51.327Z,74.21
2023-04-15T06:00:24.352Z,74.56
2023-04-15T06:02:59.163Z,74.64
2023-04-15T06:05:31.935Z,74.93
2023-04-15T06:08:04.679Z,74.75
2023-04-15T06:10:37.513Z,75.21
2023-04-15T06:13:10.534Z,75.44
2023-04-15T06:15:43.227Z,75.37
2023-04-15T06:18:17.284Z,76.12
2023-04-15T06:20:49.988Z,76.52
2023-04-15T06:23:22.711Z,76.26
2023-04-15T06:25:55.475Z,76.38
2023-04-15T06:28:28.184Z,76.36
2023-04-15T06:31:01.504Z,76.51
2023-04-15T06:33:36.023Z,76.09
2023-04-15T06:36:08.909Z,76.20
2023-04-15T06:38:41.706Z,76.47
2023-04-15T06:41:14.445Z,76.52
2023-04-15T06:43:47.398Z,76.35
2023-04-15T06:46:20.292Z,75.83
2023-04-15T06:48:54.577Z,75.93
2023-04-15T06:51:27.238Z,75.97
2023-04-15T06:53:59.926Z,75.76
2023-04-15T06:56:32.820Z,76.59
2023-04-15T06:59:05.521Z,76.29
2023-04-15T07:01:38.284Z,77.26
2023-04-15T07:04:12.657Z,76.52
2023-04-15T07:06:45.512Z,76.97
2023-04-15T07:09:18.300Z,76.45
2023-04-15T07:11:51.659Z,76.20
2023-04-15T07:14:24.390Z,76.49
2023-04-15T07:16:58.070Z,76.36
2023-04-15T07:19:32.156Z,76.17
2023-04-15T07:22:04.978Z,75.67
2023-04-15T07:24:37.750Z,75.75
2023-04-15T07:27:10.429Z,75.50
2023-04-15T07:29:43.124Z,74.94
2023-04-15T07:32:15.766Z,74.95
2023-04-15T07:34:49.918Z,74.70
2023-04-15T07:37:23.289Z,74.96
2023-04-15T07:39:56.010Z,75.26
2023-04-15T07:42:29.360Z,74.84
2023-04-15T07:45:02.074Z,74.57
2023-04-15T07:47:34.798Z,74.24
2023-04-15T07:50:11.235Z,73.58
2023-04-15T07:52:43.944Z,73.06
2023-04-15T07:55:19.395Z,73.34
2023-04-15T07:57:52.213Z,73.00
2023-04-15T08:00:24.941Z,72.75
2023-04-15T08:02:59.682Z,71.62
2023-04-15T08:05:34.241Z,72.09
2023-04-15T08:08:07.261Z,72.48
2023-04-15T08:10:40.003Z,72.19
2023-04-15T08:13:12.902Z,71.71
2023-04-15T08:15:45.724Z,72.50
2023-04-15T08:18:18.356Z,72.65
2023-04-15T08:20:52.534Z,73.32
2023-04-15T08:23:25.229Z,72.43
2023-04-15T08:25:58.086Z,72.79
2023-04-15T08:28:30.782Z,73.35
2023-04-15T08:31:03.984Z,72.88
2023-04-15T08:33:36.940Z,72.90
2023-04-15T08:36:11.638Z,73.32
2023-04-15T08:38:45.684Z,73.53
2023-04-15T08:41:21.840Z,72.36
2023-04-15T08:43:56.212Z,73.06
2023-04-15T08:46:29.104Z,72.95
2023-04-15T08:49:04.851Z,72.61
2023-04-15T08:51:40.232Z,71.80
2023-04-15T08:54:13.153Z,69.99
2023-04-15T08:56:46.290Z,72.73
2023-04-15T08:59:19.044Z,73.02
2023-04-15T09:01:52.140Z,73.37
2023-04-15T09:04:24.781Z,70.23
2023-04-15T09:06:58.955Z,68.57
2023-04-15T09:09:31.542Z,73.20
2023-04-15T09:12:04.340Z,70.82
2023-04-15T09:14:38.388Z,71.71
2023-04-15T09:17:11.936Z,71.34
2023-04-15T09:19:44.604Z,71.94
2023-04-15T09:22:18.753Z,72.42
2023-04-15T09:24:51.671Z,71.99
2023-04-15T09:27:24.299Z,72.78
2023-04-15T09:29:56.951Z,73.09
2023-04-15T09:32:29.834Z,74.30
2023-04-15T09:35:11.903Z,73.45
2023-04-15T09:37:46.380Z,74.30
2023-04-15T09:40:32.412Z,74.42
2023-04-15T09:43:06.277Z,70.44
2023-04-15T09:45:39.129Z,73.89
2023-04-15T09:48:20.962Z,72.82
2023-04-15T09:50:54.903Z,73.83
2023-04-15T09:53:31.756Z,70.59
2023-04-15T09:56:07.511Z,74.50
2023-04-15T09:58:41.997Z,72.75
2023-04-15T10:01:14.810Z,71.77
2023-04-15T10:03:48.453Z,69.06
2023-04-15T10:06:21.305Z,70.94
2023-04-15T10:08:55.536Z,72.91
2023-04-15T10:11:31.589Z,73.11
2023-04-15T10:14:05.011Z,71.99
2023-04-15T10:16:42.746Z,69.05
2023-04-15T10:19:17.506Z,71.90
2023-04-15T10:21:50.978Z,71.64
2023-04-15T10:24:25.267Z,71.44
2023-04-15T10:26:58.826Z,70.97
2023-04-15T10:29:31.504Z,67.68
2023-04-15T10:32:04.961Z,69.09
2023-04-15T10:34:38.886Z,66.60
2023-04-15T10:37:12.297Z,69.94
2023-04-15T10:39:46.474Z,71.25
2023-04-15T10:42:20.230Z,71.45
2023-04-15T10:44:57.729Z,72.71
2023-04-15T10:47:30.481Z,70.86
2023-04-15T10:50:03.754Z,71.54
2023-04-15T10:52:36.402Z,68.69
2023-04-15T10:55:16.519Z,67.82
2023-04-15T10:57:52.428Z,65.92
2023-04-15T11:00:26.850Z,64.66
2023-04-15T11:03:01.160Z,68.10
2023-04-15T11:05:48.784Z,69.07
2023-04-15T11:08:21.621Z,64.07
2023-04-15T11:10:55.976Z,66.69
2023-04-15T11:13:33.096Z,69.42
2023-04-15T11:16:06.708Z,63.18
2023-04-15T11:18:39.606Z,65.17
2023-04-15T11:21:12.359Z,65.05
2023-04-15T11:23:47.075Z,66.95
2023-04-15T11:26:27.287Z,66.91
2023-04-15T11:29:01.642Z,66.12
2023-04-15T11:31:34.476Z,66.02
2023-04-15T11:34:07.220Z,66.14
2023-04-15T11:36:40.322Z,62.61
2023-04-15T11:39:13.002Z,63.42
2023-04-15T11:41:47.177Z,67.07
2023-04-15T11:44:20.260Z,70.03
2023-04-15T11:46:53.232Z,71.29
2023-04-15T11:49:29.733Z,73.18
2023-04-15T11:52:02.446Z,71.28
2023-04-15T11:54:35.068Z,70.32
2023-04-15T11:57:09.153Z,70.74
2023-04-15T11:59:45.984Z,71.86
2023-04-15T12:02:19.163Z,72.25
2023-04-15T12:04:52.015Z,73.57
2023-04-15T12:07:25.743Z,74.21
2023-04-15T12:09:58.778Z,73.38
2023-04-15T12:12:32.919Z,72.19
2023-04-15T12:15:05.890Z,73.40
2023-04-15T12:17:50.818Z,73.40
2023-04-15T12:20:26.808Z,72.78
2023-04-15T12:23:06.497Z,73.64
2023-04-15T12:25:39.384Z,73.41
2023-04-15T12:28:14.095Z,66.79
2023-04-15T12:30:50.256Z,69.35
2023-04-15T12:33:22.898Z,68.78
2023-04-15T12:35:55.568Z,71.37
2023-04-15T12:38:28.341Z,72.79
2023-04-15T12:41:01.258Z,73.10
2023-04-15T12:43:35.415Z,70.98
2023-04-15T12:46:08.479Z,69.78
2023-04-15T12:48:41.454Z,66.93
2023-04-15T12:51:14.461Z,71.66
2023-04-15T12:53:47.927Z,69.19
2023-04-15T12:56:20.536Z,69.17
2023-04-15T12:58:54.713Z,71.10
2023-04-15T13:01:27.580Z,70.54
2023-04-15T13:04:00.503Z,70.76
2023-04-15T13:06:33.519Z,70.65
2023-04-15T13:09:06.677Z,71.14
2023-04-15T13:11:39.599Z,74.33
2023-04-15T13:14:13.877Z,73.23
2023-04-15T13:16:46.617Z,71.22
2023-04-15T13:19:19.467Z,69.15
2023-04-15T13:21:52.136Z,68.42
2023-04-15T13:24:24.764Z,67.58
2023-04-15T13:26:59.251Z,65.99
2023-04-15T13:29:33.386Z,66.95
2023-04-15T13:32:06.453Z,68.50
2023-04-15T13:34:39.111Z,69.20
2023-04-15T13:37:12.040Z,69.13
2023-04-15T13:39:44.744Z,69.21
2023-04-15T13:42:17.374Z,69.72
2023-04-15T13:44:52.569Z,69.29
2023-04-15T13:47:25.351Z,67.41
2023-04-15T13:49:58.283Z,70.12
2023-04-15T13:52:31.199Z,72.19
2023-04-15T13:55:19.139Z,71.32
2023-04-15T13:57:53.856Z,70.34
2023-04-15T14:00:27.972Z,67.38
2023-04-15T14:03:00.779Z,68.76
2023-04-15T14:05:33.658Z,68.97
2023-04-15T14:08:06.347Z,70.00
2023-04-15T14:10:39.488Z,70.54
2023-04-15T14:13:12.195Z,69.47
2023-04-15T14:15:46.753Z,70.04
2023-04-15T14:18:19.498Z,70.08
2023-04-15T14:20:52.185Z,70.13
2023-04-15T14:23:24.875Z,69.03
2023-04-15T14:25:57.704Z,68.92
2023-04-15T14:28:30.527Z,69.82
2023-04-15T14:31:04.646Z,71.61
2023-04-15T14:33:37.360Z,71.39
2023-04-15T14:36:10.490Z,71.36
2023-04-15T14:38:43.152Z,70.68
2023-04-15T14:41:16.248Z,70.38
2023-04-15T14:43:49.236Z,72.92
2023-04-15T14:46:23.412Z,71.94
2023-04-15T14:48:56.060Z,72.62
2023-04-15T14:51:28.800Z,72.15
2023-04-15T14:54:01.496Z,72.65
2023-04-15T14:56:34.290Z,73.10
2023-04-15T14:59:07.425Z,74.11
2023-04-15T15:01:41.533Z,74.12
2023-04-15T15:04:14.429Z,73.88
2023-04-15T15:06:49.122Z,71.80
2023-04-15T15:09:23.787Z,70.34
2023-04-15T15:11:57.137Z,69.27
2023-04-15T15:14:30.384Z,67.87
2023-04-15T15:17:04.566Z,70.17
2023-04-15T15:19:37.620Z,69.78
2023-04-15T15:22:10.327Z,71.06
2023-04-15T15:24:43.023Z,71.75
2023-04-15T15:27:15.705Z,71.89
2023-04-15T15:29:49.080Z,72.61
2023-04-15T15:32:23.446Z,71.91
2023-04-15T15:34:56.166Z,69.19
2023-04-15T15:37:28.907Z,69.80
2023-04-15T15:40:02.038Z,70.25
2023-04-15T15:42:35.105Z,72.47
2023-04-15T15:45:08.329Z,72.03
2023-04-15T15:47:43.280Z,69.27
2023-04-15T15:50:16.011Z,70.19
2023-04-15T15:52:48.749Z,69.64
2023-04-15T15:55:21.440Z,71.06
2023-04-15T15:57:54.341Z,69.38
2023-04-15T16:00:27.119Z,69.61
2023-04-15T16:05:36.920Z,71.26
2023-04-15T16:08:09.700Z,71.62
2023-04-15T16:10:42.561Z,71.16
2023-04-15T16:13:15.356Z,71.81
2023-04-15T16:15:48.190Z,71.05
2023-04-15T16:18:22.288Z,69.65
2023-04-15T16:20:55.455Z,69.89
2023-04-15T16:23:28.362Z,69.54
2023-04-15T16:26:01.090Z,70.06
2023-04-15T16:28:33.871Z,72.32
2023-04-15T16:31:06.561Z,70.41
2023-04-15T16:33:40.813Z,71.23
2023-04-15T16:36:13.671Z,71.24
2023-04-15T16:38:48.504Z,70.80
2023-04-15T16:41:21.227Z,71.05
2023-04-15T16:43:53.961Z,71.54
2023-04-15T16:46:26.683Z,71.28
2023-04-15T16:49:01.412Z,72.62
2023-04-15T16:51:34.482Z,72.03
2023-04-15T16:54:07.464Z,71.70
2023-04-15T16:56:40.184Z,72.47
2023-04-15T16:59:12.986Z,72.85
2023-04-15T17:01:45.934Z,72.17
2023-04-15T17:04:20.091Z,72.05
2023-04-15T17:06:52.880Z,72.68
2023-04-15T17:09:25.654Z,72.71
2023-04-15T17:11:58.663Z,72.33
2023-04-15T17:14:31.554Z,72.28
2023-04-15T17:17:04.186Z,72.14
2023-04-15T17:19:38.595Z,71.66
2023-04-15T17:22:11.292Z,72.20
2023-04-15T17:24:44.036Z,72.07
2023-04-15T17:27:16.781Z,71.73
2023-04-15T17:29:49.456Z,71.51
2023-04-15T17:32:22.826Z,72.57
2023-04-15T17:34:57.022Z,71.80
2023-04-15T17:37:29.737Z,71.89
2023-04-15T17:40:02.448Z,72.60
2023-04-15T17:42:35.090Z,72.01
2023-04-15T17:45:08.308Z,72.21
2023-04-15T17:47:41.115Z,71.92
2023-04-15T17:50:15.367Z,71.92
2023-04-15T17:52:48.470Z,72.17
2023-04-15T17:55:22.627Z,72.38
2023-04-15T17:57:55.331Z,72.36
2023-04-15T18:00:28.270Z,71.82
2023-04-15T18:03:01.046Z,71.88
2023-04-15T18:05:35.432Z,71.47
2023-04-15T18:08:08.282Z,71.80
2023-04-15T18:10:41.061Z,71.83
2023-04-15T18:13:13.814Z,71.54
2023-04-15T18:15:47.604Z,72.04
2023-04-15T18:18:20.822Z,72.09
2023-04-15T18:20:54.981Z,72.35
2023-04-15T18:23:28.285Z,72.64
2023-04-15T18:26:01.063Z,72.47
2023-04-15T18:28:33.736Z,72.43
2023-04-15T18:31:06.775Z,72.31
2023-04-15T18:33:39.950Z,72.60
2023-04-15T18:36:14.110Z,72.74
2023-04-15T18:38:46.857Z,72.27
2023-04-15T18:41:19.615Z,72.68
2023-04-15T18:43:52.448Z,72.58
2023-04-15T18:46:25.140Z,72.56
2023-04-15T18:48:57.782Z,72.78
2023-04-15T18:51:32.646Z,72.98
2023-04-15T18:54:05.673Z,72.25
2023-04-15T18:56:38.401Z,72.63
2023-04-15T18:59:28.744Z,72.65
2023-04-15T19:02:06.303Z,73.12
2023-04-15T19:04:39.140Z,73.09
2023-04-15T19:07:13.345Z,72.74
2023-04-15T19:09:46.521Z,73.16
2023-04-15T19:12:19.301Z,72.37
2023-04-15T19:14:51.969Z,72.69
2023-04-15T19:17:24.791Z,73.32
2023-04-15T19:19:57.467Z,73.33
2023-04-15T19:22:31.949Z,73.65
2023-04-15T19:25:05.038Z,73.06
2023-04-15T19:27:38.595Z,73.15
2023-04-15T19:30:11.341Z,73.72
2023-04-15T19:32:44.043Z,73.64
2023-04-15T19:35:17.054Z,74.55
2023-04-15T19:37:51.218Z,73.32
2023-04-15T19:40:23.909Z,73.64
2023-04-15T19:42:56.560Z,73.69
2023-04-15T19:45:29.286Z,73.63
2023-04-15T19:48:02.179Z,73.48
2023-04-15T19:50:34.885Z,73.47
2023-04-15T19:53:09.111Z,73.39
2023-04-15T19:55:42.119Z,73.36
2023-04-15T19:58:14.860Z,73.31
2023-04-15T20:00:47.539Z,73.58
2023-04-15T20:03:20.823Z,74.21
2023-04-15T20:05:53.722Z,74.20
2023-04-15T20:08:27.898Z,74.03
2023-04-15T20:11:01.214Z,73.93
2023-04-15T20:13:34.016Z,73.61
2023-04-15T20:16:07.932Z,73.65
2023-04-15T20:18:40.723Z,73.92
2023-04-15T20:21:13.454Z,73.81
2023-04-15T20:23:47.568Z,74.09
2023-04-15T20:26:21.546Z,73.32
2023-04-15T20:28:54.865Z,73.92
2023-04-15T20:31:27.677Z,73.32
2023-04-15T20:34:00.545Z,73.85
2023-04-15T20:36:33.300Z,73.90
2023-04-15T20:39:07.597Z,73.98
2023-04-15T20:41:40.623Z,74.67
2023-04-15T20:44:13.297Z,74.21
2023-04-15T20:46:45.929Z,74.58
2023-04-15T20:49:18.825Z,74.34
2023-04-15T20:51:51.609Z,74.44
2023-04-15T20:54:25.705Z,74.50
2023-04-15T20:56:58.431Z,74.21
2023-04-15T20:59:32.172Z,73.77
2023-04-15T21:02:05.464Z,73.48
2023-04-15T21:04:38.987Z,73.40
2023-04-15T21:07:11.794Z,73.78
2023-04-15T21:09:47.530Z,73.28
2023-04-15T21:12:20.208Z,73.45
2023-04-15T21:15:12.844Z,73.74
2023-04-15T21:17:45.843Z,73.96
2023-04-15T21:20:20.877Z,74.18
2023-04-15T21:22:53.708Z,73.89
2023-04-15T21:25:28.062Z,74.53
2023-04-15T21:28:01.153Z,74.31
2023-04-15T21:30:33.863Z,74.41
2023-04-15T21:33:06.857Z,74.68
2023-04-15T21:35:39.567Z,75.27
2023-04-15T21:38:12.600Z,75.34
2023-04-15T21:40:47.125Z,75.67
2023-04-15T21:43:21.620Z,75.88
2023-04-15T21:46:24.376Z,75.85
2023-04-15T21:48:47.713Z,75.59
2023-04-15T21:51:20.647Z,75.45
2023-04-15T21:53:53.395Z,75.78
2023-04-15T21:56:27.981Z,76.25
2023-04-15T21:59:00.750Z,76.33
2023-04-15T22:01:33.685Z,76.72
2023-04-15T22:04:07.551Z,77.00
2023-04-15T22:06:40.761Z,77.20
2023-04-15T22:09:14.387Z,77.24
2023-04-15T22:11:48.930Z,77.83
2023-04-15T22:14:21.922Z,77.69
2023-04-15T22:16:54.794Z,77.78
2023-04-15T22:19:27.624Z,77.77
2023-04-15T22:22:01.271Z,78.29
2023-04-15T22:24:39.817Z,77.69
2023-04-15T22:27:15.708Z,77.81
2023-04-15T22:29:48.390Z,77.65
2023-04-15T22:32:21.187Z,78.12
2023-04-15T22:34:54.377Z,77.83
2023-04-15T22:37:30.860Z,77.83
2023-04-15T22:40:03.636Z,78.42
2023-04-15T22:42:37.937Z,78.30
2023-04-15T22:45:10.968Z,78.31
2023-04-15T22:47:43.819Z,78.37
2023-04-15T22:50:17.040Z,78.55
2023-04-15T22:52:49.905Z,79.02
2023-04-15T22:55:23.164Z,78.61
2023-04-15T22:57:57.542Z,78.71
2023-04-15T23:00:30.802Z,78.44
2023-04-15T23:03:04.080Z,78.63
2023-04-15T23:05:37.154Z,78.50
2023-04-15T23:08:09.956Z,78.38
2023-04-15T23:10:44.633Z,78.48
2023-04-15T23:13:18.896Z,78.75
2023-04-15T23:15:51.804Z,79.04
2023-04-15T23:18:24.718Z,78.60
2023-04-15T23:20:57.812Z,78.52
2023-04-15T23:23:31.604Z,78.73
2023-04-15T23:26:05.149Z,79.03
2023-04-15T23:28:39.377Z,78.76
2023-04-15T23:31:12.223Z,78.89
2023-04-15T23:33:45.533Z,79.12
2023-04-15T23:36:18.688Z,78.76
2023-04-15T23:38:51.844Z,78.77
2023-04-15T23:41:24.994Z,79.22
2023-04-15T23:43:59.496Z,78.61
2023-04-15T23:46:32.358Z,78.96
2023-04-15T23:49:05.545Z,79.43
2023-04-15T23:51:38.771Z,79.15
2023-04-15T23:54:12.163Z,79.20
2023-04-15T23:56:44.875Z,78.89
2023-04-15T23:59:19.366Z,79.20
